Terminal Aerodrome Forecast
Issued by NWS

Home | Current Version | Previous Version | Text Only | Print | Product List | Glossary On
Versions: 1 2 3 4 5 6 7 8 9 10 11 12 13 14 15
000
FTUS42 KFFC 032336
TAFRYY
TAF
KRYY 032336Z 0400/0424 30005KT P6SM FEW060
     FM041200 35003KT P6SM FEW250
     FM041700 32007KT P6SM FEW040 SCT250
     FM042300 26004KT P6SM FEW250
      AMD NOT SKED 0404/0412=

USA.gov is the U.S. government's official web portal to all federal, state and local government web resources and services.